createdAt,value
2022-12-06T00:01:33.980Z,103034.06
2022-12-06T00:04:03.533Z,103038.47
2022-12-06T00:06:32.424Z,103041.13
2022-12-06T00:09:00.182Z,103039.44
2022-12-06T00:11:29.735Z,103046.50
2022-12-06T00:14:01.505Z,103036.81
2022-12-06T00:16:29.593Z,103040.31
2022-12-06T00:18:59.049Z,103042.94
2022-12-06T00:21:28.872Z,103044.75
2022-12-06T00:24:01.762Z,103035.94
2022-12-06T00:26:29.705Z,103041.25
2022-12-06T00:29:00.541Z,103039.50
2022-12-06T00:31:28.525Z,103038.63
2022-12-06T00:33:56.296Z,103030.69
2022-12-06T00:36:25.780Z,103031.59
2022-12-06T00:38:54.223Z,103034.25
2022-12-06T00:41:25.462Z,103014.84
2022-12-06T00:43:53.280Z,103011.31
2022-12-06T00:46:25.816Z,103019.28
2022-12-06T00:48:54.391Z,103017.50
2022-12-06T00:51:22.172Z,103014.84
2022-12-06T00:53:49.963Z,102999.88
2022-12-06T00:56:17.786Z,103002.50
2022-12-06T00:58:45.626Z,102999.00
2022-12-06T01:01:13.222Z,102995.50
2022-12-06T01:03:40.989Z,102993.75
2022-12-06T01:06:10.490Z,102997.25
2022-12-06T01:08:38.497Z,103002.56
2022-12-06T01:11:06.141Z,102987.56
2022-12-06T01:13:33.973Z,102999.91
2022-12-06T01:16:11.662Z,102987.59
2022-12-06T01:18:39.700Z,102994.63
2022-12-06T01:21:08.538Z,102984.97
2022-12-06T01:23:37.943Z,102988.47
2022-12-06T01:26:06.188Z,102981.47
2022-12-06T01:28:34.143Z,102979.69
2022-12-06T01:31:07.030Z,102972.63
2022-12-06T01:33:34.874Z,102978.81
2022-12-06T01:36:02.414Z,102971.75
2022-12-06T01:38:30.241Z,102972.63
2022-12-06T01:40:57.801Z,102970.91
2022-12-06T01:43:38.851Z,102971.81
2022-12-06T01:46:12.565Z,102964.78
2022-12-06T01:48:40.133Z,102976.19
2022-12-06T01:51:09.612Z,102967.41
2022-12-06T01:53:37.830Z,102966.50
2022-12-06T01:56:05.584Z,102961.25
2022-12-06T01:58:37.120Z,102963.88
2022-12-06T02:01:05.503Z,102949.81
2022-12-06T02:03:33.670Z,102957.75
2022-12-06T02:06:05.157Z,102953.34
2022-12-06T02:08:32.893Z,102953.38
2022-12-06T02:11:01.993Z,102960.38
2022-12-06T02:13:30.641Z,102959.50
2022-12-06T02:16:16.887Z,102958.66
2022-12-06T02:19:11.021Z,102952.47
2022-12-06T02:22:23.642Z,102953.38
2022-12-06T02:25:20.241Z,102953.38
2022-12-06T02:27:54.652Z,102956.88
2022-12-06T02:30:31.320Z,102956.88
2022-12-06T02:33:09.815Z,102953.38
2022-12-06T02:35:52.932Z,102959.53
2022-12-06T02:38:44.252Z,102955.13
2022-12-06T02:41:29.986Z,102949.81
2022-12-06T02:44:00.322Z,102959.53
2022-12-06T02:46:30.148Z,102957.75
2022-12-06T02:48:59.436Z,102949.84
2022-12-06T02:51:27.099Z,102948.97
2022-12-06T02:53:54.699Z,102951.63
2022-12-06T02:56:22.223Z,102948.09
2022-12-06T02:58:49.793Z,102949.84
2022-12-06T03:01:31.203Z,102947.22
2022-12-06T03:04:31.852Z,102946.34
2022-12-06T03:07:09.823Z,102941.97
2022-12-06T03:10:11.613Z,102943.69
2022-12-06T03:12:45.967Z,102942.81
2022-12-06T03:15:16.061Z,102931.41
2022-12-06T03:18:04.402Z,102931.41
2022-12-06T03:20:34.461Z,102929.66
2022-12-06T03:23:04.265Z,102928.75
2022-12-06T03:25:33.863Z,102924.38
2022-12-06T03:28:01.566Z,102926.13
2022-12-06T03:30:30.985Z,102924.38
2022-12-06T03:32:58.676Z,102912.06
2022-12-06T03:35:27.418Z,102920.84
2022-12-06T03:38:03.413Z,102924.34
2022-12-06T03:40:32.549Z,102920.84
2022-12-06T03:43:00.320Z,102923.47
2022-12-06T03:45:31.901Z,102936.66
2022-12-06T03:48:13.801Z,102933.16
2022-12-06T03:50:47.542Z,102923.50
2022-12-06T03:53:17.827Z,102924.38
2022-12-06T03:55:45.954Z,102925.28
2022-12-06T03:58:13.553Z,102915.56
2022-12-06T04:00:41.090Z,102914.66
2022-12-06T04:03:08.837Z,102906.75
2022-12-06T04:05:36.745Z,102916.44
2022-12-06T04:08:04.720Z,102908.53
2022-12-06T04:10:32.607Z,102905.88
2022-12-06T04:13:03.097Z,102909.41
2022-12-06T04:15:37.993Z,102914.69
2022-12-06T04:18:10.895Z,102913.78
2022-12-06T04:21:03.435Z,102919.09
2022-12-06T04:23:33.121Z,102914.69
2022-12-06T04:26:03.961Z,102906.78
2022-12-06T04:28:50.310Z,102910.28
2022-12-06T04:31:36.388Z,102904.09
2022-12-06T04:34:22.534Z,102899.72
2022-12-06T04:37:08.588Z,102896.16
2022-12-06T04:39:36.306Z,102896.16
2022-12-06T04:42:22.250Z,102897.06
2022-12-06T04:44:49.884Z,102897.06
2022-12-06T04:47:17.489Z,102893.53
2022-12-06T04:49:45.082Z,102891.78
2022-12-06T04:52:13.015Z,102894.41
2022-12-06T04:54:40.780Z,102890.91
2022-12-06T04:57:14.130Z,102888.28
2022-12-06T04:59:43.156Z,102892.66
2022-12-06T05:02:12.568Z,102889.16
2022-12-06T05:04:40.215Z,102896.16
2022-12-06T05:07:08.113Z,102889.13
2022-12-06T05:09:35.673Z,102886.50
2022-12-06T05:12:03.293Z,102892.66
2022-12-06T05:14:30.942Z,102896.16
2022-12-06T05:16:59.125Z,102898.78
2022-12-06T05:19:27.496Z,102897.00
2022-12-06T05:21:55.484Z,102895.25
2022-12-06T05:24:23.132Z,102897.91
2022-12-06T05:26:50.839Z,102895.28
2022-12-06T05:29:20.073Z,102886.44
2022-12-06T05:31:47.799Z,102888.19
2022-12-06T05:34:15.460Z,102887.31
2022-12-06T05:36:45.570Z,102887.28
2022-12-06T05:39:13.258Z,102880.25
2022-12-06T05:41:40.940Z,102891.69
2022-12-06T05:44:12.835Z,102885.50
2022-12-06T05:46:40.412Z,102892.53
2022-12-06T05:49:08.170Z,102895.16
2022-12-06T05:51:35.870Z,102892.44
2022-12-06T05:54:05.347Z,102895.06
2022-12-06T05:56:33.523Z,102887.97
2022-12-06T05:59:01.365Z,102892.38
2022-12-06T06:01:29.141Z,102887.03
2022-12-06T06:03:56.902Z,102890.59
2022-12-06T06:06:25.064Z,102893.09
2022-12-06T06:08:52.807Z,102887.84
2022-12-06T06:11:26.566Z,102883.34
2022-12-06T06:13:55.779Z,102878.06
2022-12-06T06:16:23.837Z,102879.75
2022-12-06T06:18:51.556Z,102870.00
2022-12-06T06:21:19.050Z,102876.16
2022-12-06T06:23:46.637Z,102856.75
2022-12-06T06:26:14.194Z,102867.25
2022-12-06T06:28:41.752Z,102860.97
2022-12-06T06:31:09.747Z,102870.66
2022-12-06T06:33:37.403Z,102859.25
2022-12-06T06:36:05.378Z,102858.25
2022-12-06T06:38:33.061Z,102856.44
2022-12-06T06:41:04.403Z,102869.56
2022-12-06T06:43:32.242Z,102859.81
2022-12-06T06:46:01.468Z,102858.84
2022-12-06T06:48:30.900Z,102856.13
2022-12-06T06:51:06.382Z,102853.31
2022-12-06T06:53:34.149Z,102849.81
2022-12-06T06:56:02.834Z,102850.63
2022-12-06T06:58:30.685Z,102851.47
2022-12-06T07:00:59.827Z,102846.03
2022-12-06T07:03:27.825Z,102844.16
2022-12-06T07:05:56.761Z,102837.84
2022-12-06T07:08:24.892Z,102832.34
2022-12-06T07:10:52.489Z,102834.75
2022-12-06T07:13:20.936Z,102825.91
2022-12-06T07:15:49.138Z,102818.72
2022-12-06T07:18:17.564Z,102822.88
2022-12-06T07:20:45.912Z,102820.91
2022-12-06T07:23:13.957Z,102812.81
2022-12-06T07:25:41.587Z,102821.53
2022-12-06T07:28:09.169Z,102814.34
2022-12-06T07:30:36.994Z,102812.41
2022-12-06T07:33:04.638Z,102813.97
2022-12-06T07:36:03.769Z,102804.00
2022-12-06T07:38:20.168Z,102806.47
2022-12-06T07:41:04.128Z,102804.50
2022-12-06T07:43:50.985Z,102810.53
2022-12-06T07:46:18.686Z,102802.38
2022-12-06T07:48:46.309Z,102796.78
2022-12-06T07:51:14.049Z,102786.00
2022-12-06T07:53:41.695Z,102777.78
2022-12-06T07:56:09.513Z,102780.44
2022-12-06T07:58:37.129Z,102781.81
2022-12-06T08:01:05.367Z,102772.69
2022-12-06T08:03:33.054Z,102775.91
2022-12-06T08:06:00.709Z,102774.91
2022-12-06T08:08:29.237Z,102775.50
2022-12-06T08:11:04.857Z,102763.81
2022-12-06T08:13:33.420Z,102748.44
2022-12-06T08:16:05.982Z,102769.47
2022-12-06T08:18:33.632Z,102762.16
2022-12-06T08:21:01.372Z,102764.38
2022-12-06T08:23:33.883Z,102775.56
2022-12-06T08:26:13.913Z,102757.44
2022-12-06T08:28:43.473Z,102760.63
2022-12-06T08:31:19.946Z,102750.72
2022-12-06T08:33:48.073Z,102744.50
2022-12-06T08:36:17.628Z,102736.78
2022-12-06T08:38:46.570Z,102740.09
2022-12-06T08:41:32.773Z,102738.19
2022-12-06T08:44:01.125Z,102731.16
2022-12-06T08:46:29.222Z,102726.47
2022-12-06T08:48:56.936Z,102719.13
2022-12-06T08:51:24.509Z,102730.34
2022-12-06T08:53:53.085Z,102725.09
2022-12-06T08:56:20.963Z,102728.16
2022-12-06T08:58:48.900Z,102728.75
2022-12-06T09:01:19.325Z,102715.06
2022-12-06T09:03:47.127Z,102717.41
2022-12-06T09:06:15.144Z,102721.47
2022-12-06T09:08:42.777Z,102720.78
2022-12-06T09:11:10.539Z,102715.56
2022-12-06T09:13:38.836Z,102716.34
2022-12-06T09:16:10.887Z,102702.84
2022-12-06T09:18:38.637Z,102712.91
2022-12-06T09:21:10.157Z,102694.84
2022-12-06T09:23:39.492Z,102690.16
2022-12-06T09:26:07.645Z,102686.81
2022-12-06T09:28:35.979Z,102679.00
2022-12-06T09:31:04.173Z,102685.13
2022-12-06T09:33:32.375Z,102670.78
2022-12-06T09:36:01.242Z,102676.81
2022-12-06T09:38:29.628Z,102669.53
2022-12-06T09:41:03.842Z,102666.34
2022-12-06T09:43:59.442Z,102654.44
2022-12-06T09:46:50.336Z,102651.69
2022-12-06T09:49:31.031Z,102640.66
2022-12-06T09:52:19.973Z,102634.81
2022-12-06T09:55:00.298Z,102632.84
2022-12-06T09:57:51.903Z,102629.34
2022-12-06T10:01:00.745Z,102622.72
2022-12-06T10:03:47.536Z,102613.41
2022-12-06T10:06:16.873Z,102616.66
2022-12-06T10:08:54.909Z,102608.53
2022-12-06T10:11:49.188Z,102605.66
2022-12-06T10:14:35.577Z,102610.50
2022-12-06T10:17:18.506Z,102603.44
2022-12-06T10:19:54.385Z,102599.78
2022-12-06T10:22:44.273Z,102592.81
2022-12-06T10:25:23.911Z,102589.53
2022-12-06T10:28:08.985Z,102585.31
2022-12-06T10:30:39.098Z,102586.09
2022-12-06T10:33:17.881Z,102584.78
2022-12-06T10:35:59.254Z,102579.09
2022-12-06T10:38:32.886Z,102581.38
2022-12-06T10:41:15.765Z,102582.09
2022-12-06T10:43:43.301Z,102571.59
2022-12-06T10:46:35.632Z,102561.13
2022-12-06T10:49:23.580Z,102559.25
2022-12-06T10:51:54.797Z,102554.69
2022-12-06T10:54:24.027Z,102550.00
2022-12-06T10:56:52.875Z,102545.50
2022-12-06T11:00:03.731Z,102543.41
2022-12-06T11:02:39.264Z,102537.53
2022-12-06T11:05:15.238Z,102530.25
2022-12-06T11:07:44.037Z,102530.16
2022-12-06T11:10:22.469Z,102522.41
2022-12-06T11:12:59.657Z,102516.41
2022-12-06T11:15:30.063Z,102517.56
2022-12-06T11:18:11.746Z,102517.28
2022-12-06T11:20:45.122Z,102508.16
2022-12-06T11:23:26.238Z,102506.91
2022-12-06T11:26:21.363Z,102505.03
2022-12-06T11:29:04.324Z,102498.56
2022-12-06T11:31:35.217Z,102499.84
2022-12-06T11:34:03.207Z,102497.47
2022-12-06T11:36:31.015Z,102500.50
2022-12-06T11:38:58.758Z,102497.47
2022-12-06T11:41:31.550Z,102493.44
2022-12-06T11:43:59.321Z,102494.69
2022-12-06T11:46:26.974Z,102491.44
2022-12-06T11:49:03.811Z,102494.53
2022-12-06T11:51:31.690Z,102488.16
2022-12-06T11:54:24.836Z,102482.75
2022-12-06T11:56:52.384Z,102478.81
2022-12-06T11:59:28.853Z,102478.34
2022-12-06T12:01:58.835Z,102477.66
2022-12-06T12:04:31.703Z,102472.00
2022-12-06T12:07:20.629Z,102471.41
2022-12-06T12:10:00.415Z,102465.75
2022-12-06T12:12:55.796Z,102475.75
2022-12-06T12:15:23.344Z,102471.31
2022-12-06T12:17:52.706Z,102482.34
2022-12-06T12:20:26.469Z,102466.94
2022-12-06T12:23:06.504Z,102476.94
2022-12-06T12:25:35.051Z,102476.25
2022-12-06T12:28:04.292Z,102479.75
2022-12-06T12:30:39.806Z,102477.91
2022-12-06T12:33:07.301Z,102472.50
2022-12-06T12:36:02.885Z,102475.03
2022-12-06T12:38:42.783Z,102471.38
2022-12-06T12:41:34.854Z,102465.56
2022-12-06T12:44:36.014Z,102467.56
2022-12-06T12:47:02.857Z,102471.66
2022-12-06T12:49:31.737Z,102469.75
2022-12-06T12:51:59.663Z,102471.81
2022-12-06T12:54:32.977Z,102468.97
2022-12-06T12:57:01.825Z,102465.31
2022-12-06T12:59:35.974Z,102471.31
2022-12-06T13:02:23.388Z,102470.03
2022-12-06T13:05:05.070Z,102473.06
2022-12-06T13:07:41.043Z,102475.16
2022-12-06T13:10:52.844Z,102468.00
2022-12-06T13:13:56.602Z,102473.88
2022-12-06T13:16:32.965Z,102460.91
2022-12-06T13:19:00.734Z,102466.75
2022-12-06T13:21:36.271Z,102468.38
2022-12-06T13:24:12.885Z,102468.72
2022-12-06T13:26:43.462Z,102471.09
2022-12-06T13:29:34.243Z,102462.63
2022-12-06T13:32:32.850Z,102474.09
2022-12-06T13:35:04.639Z,102467.44
2022-12-06T13:37:44.059Z,102461.13
2022-12-06T13:40:34.973Z,102456.41
2022-12-06T13:43:07.210Z,102461.81
2022-12-06T13:45:38.237Z,102458.00
2022-12-06T13:48:25.853Z,102456.03
2022-12-06T13:50:56.316Z,102465.34
2022-12-06T13:53:25.535Z,102458.09
2022-12-06T13:56:02.393Z,102451.19
2022-12-06T13:58:30.171Z,102453.66
2022-12-06T14:00:57.946Z,102448.56
2022-12-06T14:03:25.492Z,102447.09
2022-12-06T14:06:07.538Z,102448.66
2022-12-06T14:08:47.837Z,102451.91
2022-12-06T14:11:39.679Z,102449.53
2022-12-06T14:14:18.618Z,102463.09
2022-12-06T14:16:51.680Z,102456.56
2022-12-06T14:19:23.174Z,102457.84
2022-12-06T14:21:59.134Z,102454.94
2022-12-06T14:24:33.674Z,102453.25
2022-12-06T14:27:14.609Z,102449.50
2022-12-06T14:29:43.047Z,102444.16
2022-12-06T14:32:10.746Z,102443.56
2022-12-06T14:34:38.399Z,102449.25
2022-12-06T14:37:20.967Z,102439.16
2022-12-06T14:39:52.930Z,102445.38
2022-12-06T14:42:46.763Z,102440.16
2022-12-06T14:45:15.803Z,102433.03
2022-12-06T14:47:44.514Z,102428.59
2022-12-06T14:50:32.577Z,102430.56
2022-12-06T14:53:14.172Z,102423.13
2022-12-06T14:55:57.945Z,102424.22
2022-12-06T14:58:35.773Z,102422.78
2022-12-06T15:01:06.040Z,102421.28
2022-12-06T15:03:37.071Z,102417.63
2022-12-06T15:06:19.236Z,102417.91
2022-12-06T15:09:38.436Z,102417.03
2022-12-06T15:12:41.481Z,102424.22
2022-12-06T15:15:34.515Z,102421.72
2022-12-06T15:18:29.069Z,102410.09
2022-12-06T15:20:56.684Z,102416.50
2022-12-06T15:23:36.188Z,102419.22
2022-12-06T15:26:04.593Z,102417.50
2022-12-06T15:28:32.232Z,102416.38
2022-12-06T15:30:59.910Z,102418.50
2022-12-06T15:33:27.766Z,102424.81
2022-12-06T15:35:55.406Z,102428.34
2022-12-06T15:38:23.215Z,102431.25
2022-12-06T15:40:51.407Z,102432.28
2022-12-06T15:43:29.880Z,102440.56
2022-12-06T15:46:01.604Z,102444.41
2022-12-06T15:48:30.320Z,102440.03
2022-12-06T15:50:58.527Z,102441.13
2022-12-06T15:53:26.642Z,102434.25
2022-12-06T15:55:54.638Z,102430.44
2022-12-06T15:58:22.954Z,102433.41
2022-12-06T16:00:50.976Z,102432.88
2022-12-06T16:03:18.996Z,102435.91
2022-12-06T16:05:46.780Z,102433.41
2022-12-06T16:08:14.555Z,102425.69
2022-12-06T16:11:10.954Z,102431.44
2022-12-06T16:13:31.627Z,102425.81
2022-12-06T16:15:59.546Z,102422.44
2022-12-06T16:18:27.401Z,102434.09
2022-12-06T16:20:55.064Z,102437.81
2022-12-06T16:24:11.960Z,102437.19
2022-12-06T16:26:38.478Z,102426.84
2022-12-06T16:29:07.149Z,102424.19
2022-12-06T16:31:38.421Z,102425.25
2022-12-06T16:34:07.155Z,102426.88
2022-12-06T16:36:35.243Z,102425.06
2022-12-06T16:39:04.748Z,102429.50
2022-12-06T16:41:33.977Z,102425.00
2022-12-06T16:44:01.930Z,102417.09
2022-12-06T16:46:38.444Z,102418.13
2022-12-06T16:49:37.314Z,102406.69
2022-12-06T16:51:56.246Z,102397.69
2022-12-06T16:54:23.836Z,102402.19
2022-12-06T16:56:51.572Z,102393.34
2022-12-06T16:59:19.275Z,102400.59
2022-12-06T17:01:56.391Z,102401.34
2022-12-06T17:04:26.171Z,102394.34
2022-12-06T17:06:53.872Z,102398.75
2022-12-06T17:09:21.505Z,102396.97
2022-12-06T17:12:06.474Z,102400.81
2022-12-06T17:14:36.150Z,102388.38
2022-12-06T17:17:04.269Z,102378.69
2022-12-06T17:19:33.378Z,102383.47
2022-12-06T17:22:04.885Z,102384.34
2022-12-06T17:24:33.503Z,102375.66
2022-12-06T17:27:01.262Z,102368.81
2022-12-06T17:29:29.010Z,102370.47
2022-12-06T17:31:56.854Z,102376.16
2022-12-06T17:34:26.009Z,102370.81
2022-12-06T17:36:54.091Z,102365.50
2022-12-06T17:39:24.370Z,102370.97
2022-12-06T17:42:10.490Z,102370.16
2022-12-06T17:44:39.966Z,102364.91
2022-12-06T17:47:07.799Z,102369.53
2022-12-06T17:49:36.371Z,102373.44
2022-12-06T17:52:04.707Z,102357.28
2022-12-06T17:54:32.466Z,102361.53
2022-12-06T17:57:00.228Z,102356.44
2022-12-06T17:59:30.415Z,102360.13
2022-12-06T18:02:18.244Z,102352.25
2022-12-06T18:04:47.576Z,102348.75
2022-12-06T18:07:16.433Z,102343.25
2022-12-06T18:09:44.236Z,102350.31
2022-12-06T18:12:12.836Z,102344.91
2022-12-06T18:14:40.486Z,102348.38
2022-12-06T18:17:08.189Z,102348.31
2022-12-06T18:19:36.006Z,102348.38
2022-12-06T18:22:03.891Z,102354.28
2022-12-06T18:24:36.108Z,102346.16
2022-12-06T18:27:07.293Z,102339.84
2022-12-06T18:29:35.097Z,102347.91
2022-12-06T18:32:03.015Z,102346.28
2022-12-06T18:34:31.181Z,102344.28
2022-12-06T18:36:59.081Z,102349.28
2022-12-06T18:39:28.312Z,102340.66
2022-12-06T18:41:56.208Z,102332.50
2022-12-06T18:44:24.282Z,102331.69
2022-12-06T18:46:52.164Z,102322.03
2022-12-06T18:49:20.138Z,102327.97
2022-12-06T18:51:47.945Z,102329.03
2022-12-06T18:54:15.793Z,102319.31
2022-12-06T18:56:46.760Z,102310.41
2022-12-06T18:59:14.418Z,102311.38
2022-12-06T19:01:42.222Z,102316.53
2022-12-06T19:04:16.612Z,102312.09
2022-12-06T19:06:45.022Z,102310.22
2022-12-06T19:09:15.033Z,102309.19
2022-12-06T19:11:44.457Z,102303.09
2022-12-06T19:14:12.290Z,102302.13
2022-12-06T19:16:42.091Z,102309.34
2022-12-06T19:19:16.153Z,102295.00
2022-12-06T19:21:47.937Z,102294.19
2022-12-06T19:24:17.556Z,102288.31
2022-12-06T19:26:45.604Z,102281.19
2022-12-06T19:29:13.988Z,102286.63
2022-12-06T19:31:42.076Z,102294.75
2022-12-06T19:34:24.148Z,102288.47
2022-12-06T19:36:53.341Z,102284.06
2022-12-06T19:39:21.092Z,102295.00
2022-12-06T19:42:09.015Z,102286.00
2022-12-06T19:44:36.635Z,102279.03
2022-12-06T19:47:04.458Z,102279.84
2022-12-06T19:49:32.367Z,102281.47
2022-12-06T19:52:00.704Z,102282.41
2022-12-06T19:54:30.252Z,102282.34
2022-12-06T19:56:58.615Z,102295.50
2022-12-06T19:59:28.219Z,102287.75
2022-12-06T20:01:58.392Z,102289.91
2022-12-06T20:04:30.661Z,102280.34
2022-12-06T20:07:00.248Z,102284.13
2022-12-06T20:09:29.186Z,102273.50
2022-12-06T20:12:04.418Z,102283.72
2022-12-06T20:14:42.030Z,102281.75
2022-12-06T20:17:20.641Z,102282.91
2022-12-06T20:19:51.504Z,102271.56
2022-12-06T20:22:19.691Z,102267.13
2022-12-06T20:24:59.357Z,102264.38
2022-12-06T20:27:47.019Z,102268.66
2022-12-06T20:30:15.379Z,102267.69
2022-12-06T20:32:44.605Z,102262.09
2022-12-06T20:35:12.498Z,102264.66
2022-12-06T20:37:40.371Z,102261.28
2022-12-06T20:40:08.832Z,102263.03
2022-12-06T20:42:36.640Z,102264.66
2022-12-06T20:45:05.855Z,102259.34
2022-12-06T20:47:33.573Z,102267.84
2022-12-06T20:50:01.571Z,102269.63
2022-12-06T20:52:30.687Z,102269.00
2022-12-06T20:54:58.530Z,102275.75
2022-12-06T20:57:26.506Z,102264.31
2022-12-06T20:59:55.304Z,102268.75
2022-12-06T21:02:23.023Z,102264.13
2022-12-06T21:04:51.747Z,102271.16
2022-12-06T21:07:19.917Z,102259.00
2022-12-06T21:09:47.791Z,102261.75
2022-12-06T21:12:16.383Z,102258.00
2022-12-06T21:14:44.665Z,102266.72
2022-12-06T21:17:12.684Z,102258.88
2022-12-06T21:19:40.692Z,102242.75
2022-12-06T21:22:12.379Z,102247.09
2022-12-06T21:24:40.201Z,102241.56
2022-12-06T21:27:09.246Z,102246.00
2022-12-06T21:29:39.173Z,102234.38
2022-12-06T21:32:06.885Z,102236.97
2022-12-06T21:34:34.767Z,102235.91
2022-12-06T21:37:02.620Z,102230.78
2022-12-06T21:39:30.602Z,102228.09
2022-12-06T21:41:58.358Z,102222.41
2022-12-06T21:44:26.201Z,102219.03
2022-12-06T21:46:54.217Z,102216.38
2022-12-06T21:49:22.117Z,102205.69
2022-12-06T21:51:51.136Z,102204.81
2022-12-06T21:54:21.491Z,102192.94
2022-12-06T21:56:49.262Z,102191.84
2022-12-06T21:59:24.204Z,102180.69
2022-12-06T22:01:52.049Z,102180.31
2022-12-06T22:04:20.407Z,102176.34
2022-12-06T22:06:48.416Z,102175.78
2022-12-06T22:09:16.207Z,102172.72
2022-12-06T22:11:44.160Z,102172.03
2022-12-06T22:14:12.205Z,102170.91
2022-12-06T22:16:40.116Z,102163.47
2022-12-06T22:19:07.952Z,102161.56
2022-12-06T22:27:05.682Z,102161.03
2022-12-06T22:29:33.611Z,102163.22
2022-12-06T22:32:01.413Z,102158.72
2022-12-06T22:34:29.722Z,102158.44
2022-12-06T22:36:57.508Z,102160.25
2022-12-06T22:39:25.172Z,102161.16
2022-12-06T22:41:54.495Z,102162.88
2022-12-06T22:44:22.295Z,102157.38
2022-12-06T22:46:55.887Z,102148.56
2022-12-06T22:49:25.018Z,102154.84
2022-12-06T22:52:11.296Z,102153.31
2022-12-06T22:54:39.008Z,102153.06
2022-12-06T22:57:06.969Z,102149.44
2022-12-06T23:00:12.041Z,102139.25
2022-12-06T23:02:58.733Z,102128.69
2022-12-06T23:05:26.472Z,102130.75
2022-12-06T23:07:54.243Z,102132.25
2022-12-06T23:10:22.267Z,102125.53
2022-12-06T23:12:50.133Z,102139.13
2022-12-06T23:15:18.029Z,102141.41
2022-12-06T23:17:46.300Z,102138.22
2022-12-06T23:20:51.591Z,102134.78
2022-12-06T23:24:34.354Z,102124.84
2022-12-06T23:27:35.747Z,102122.47
2022-12-06T23:30:03.971Z,102118.19
2022-12-06T23:32:32.673Z,102114.19
2022-12-06T23:35:00.493Z,102110.66
2022-12-06T23:37:29.371Z,102103.56
2022-12-06T23:39:57.140Z,102108.03
2022-12-06T23:42:26.029Z,102102.75
2022-12-06T23:44:54.531Z,102099.19
2022-12-06T23:47:22.330Z,102105.34
2022-12-06T23:49:50.392Z,102106.06
2022-12-06T23:52:18.456Z,102103.03
2022-12-06T23:54:46.620Z,102110.06
2022-12-06T23:57:17.128Z,102109.69
2022-12-06T23:59:45.066Z,102107.91
